createdAt,value
2023-06-10T00:00:02.800Z,19.74
2023-06-10T00:02:30.689Z,19.73
2023-06-10T00:04:58.552Z,19.46
2023-06-10T00:07:28.023Z,19.72
2023-06-10T00:09:55.423Z,19.71
2023-06-10T00:12:23.011Z,19.67
2023-06-10T00:14:50.517Z,19.54
2023-06-10T00:17:17.910Z,19.65
2023-06-10T00:19:45.383Z,19.69
2023-06-10T00:22:12.937Z,19.47
2023-06-10T00:24:42.713Z,19.22
2023-06-10T00:27:10.183Z,19.42
2023-06-10T00:29:37.761Z,19.35
2023-06-10T00:32:06.176Z,19.53
2023-06-10T00:34:33.898Z,19.55
2023-06-10T00:37:01.405Z,19.32
2023-06-10T00:39:28.721Z,19.44
2023-06-10T00:41:57.500Z,19.41
2023-06-10T00:44:25.128Z,19.29
2023-06-10T00:46:52.634Z,18.84
2023-06-10T00:49:20.798Z,19.12
2023-06-10T00:51:48.410Z,19.20
2023-06-10T00:54:15.903Z,19.06
2023-06-10T00:56:43.658Z,19.15
2023-06-10T00:59:12.613Z,19.12
2023-06-10T01:01:40.034Z,18.99
2023-06-10T01:04:07.771Z,19.10
2023-06-10T01:06:42.354Z,18.95
2023-06-10T01:09:19.671Z,19.20
2023-06-10T01:11:56.197Z,19.17
2023-06-10T01:14:26.172Z,19.16
2023-06-10T01:16:54.061Z,18.80
2023-06-10T01:19:21.493Z,18.59
2023-06-10T01:21:50.424Z,19.06
2023-06-10T01:24:17.998Z,19.12
2023-06-10T01:26:50.120Z,19.16
2023-06-10T01:29:21.346Z,19.14
2023-06-10T01:31:53.427Z,19.16
2023-06-10T01:34:24.943Z,19.12
2023-06-10T01:36:54.615Z,19.06
2023-06-10T01:39:25.108Z,18.83
2023-06-10T01:41:53.742Z,18.94
2023-06-10T01:44:21.467Z,18.39
2023-06-10T01:46:49.106Z,18.68
2023-06-10T01:49:18.417Z,18.46
2023-06-10T01:51:45.832Z,18.65
2023-06-10T01:54:14.849Z,18.49
2023-06-10T01:56:43.269Z,18.41
2023-06-10T01:59:10.701Z,18.50
2023-06-10T02:01:38.446Z,18.60
2023-06-10T02:04:06.019Z,18.08
2023-06-10T02:06:33.925Z,18.52
2023-06-10T02:09:01.576Z,18.14
2023-06-10T02:11:30.494Z,18.34
2023-06-10T02:13:57.875Z,18.05
2023-06-10T02:16:25.853Z,18.10
2023-06-10T02:18:53.270Z,18.45
2023-06-10T02:21:20.622Z,18.32
2023-06-10T02:23:48.364Z,18.22
2023-06-10T02:26:15.801Z,18.09
2023-06-10T02:28:45.366Z,18.76
2023-06-10T02:31:13.009Z,18.78
2023-06-10T02:33:40.332Z,19.00
2023-06-10T02:36:08.120Z,18.65
2023-06-10T02:38:35.912Z,18.85
2023-06-10T02:41:03.301Z,19.43
2023-06-10T02:43:30.667Z,19.03
2023-06-10T02:45:59.768Z,19.36
2023-06-10T02:48:28.980Z,19.11
2023-06-10T02:50:56.394Z,19.37
2023-06-10T02:53:24.388Z,19.40
2023-06-10T02:55:51.804Z,19.55
2023-06-10T02:58:21.963Z,19.87
2023-06-10T03:00:49.750Z,19.97
2023-06-10T03:03:18.445Z,20.09
2023-06-10T03:05:45.814Z,19.81
2023-06-10T03:08:14.120Z,20.22
2023-06-10T03:10:41.404Z,20.12
2023-06-10T03:13:08.764Z,20.31
2023-06-10T03:15:37.816Z,20.36
2023-06-10T03:18:05.440Z,20.29
2023-06-10T03:20:40.998Z,20.06
2023-06-10T03:23:10.969Z,20.43
2023-06-10T03:25:38.552Z,20.62
2023-06-10T03:28:06.002Z,20.17
2023-06-10T03:30:34.295Z,20.47
2023-06-10T03:33:01.960Z,20.84
2023-06-10T03:35:29.466Z,20.81
2023-06-10T03:41:20.843Z,20.42
2023-06-10T03:43:51.453Z,20.59
2023-06-10T03:48:38.632Z,20.55
2023-06-10T03:50:47.657Z,20.70
2023-06-10T03:53:22.390Z,20.89
2023-06-10T03:56:23.395Z,21.13
2023-06-10T03:59:10.758Z,21.02
2023-06-10T04:01:47.542Z,21.42
2023-06-10T04:04:32.637Z,21.06
2023-06-10T04:07:11.615Z,21.21
2023-06-10T04:09:40.878Z,21.65
2023-06-10T04:12:09.229Z,21.75
2023-06-10T04:14:37.669Z,21.71
2023-06-10T04:17:06.663Z,22.19
2023-06-10T04:19:34.236Z,22.43
2023-06-10T04:22:02.634Z,22.11
2023-06-10T04:24:30.392Z,22.41
2023-06-10T04:26:59.789Z,22.58
2023-06-10T04:29:27.481Z,22.63
2023-06-10T04:31:55.188Z,22.81
2023-06-10T04:34:26.583Z,22.71
2023-06-10T04:36:56.890Z,22.73
2023-06-10T04:39:25.268Z,22.86
2023-06-10T04:41:53.190Z,22.70
2023-06-10T04:44:27.557Z,22.79
2023-06-10T04:46:57.355Z,23.23
2023-06-10T04:49:39.500Z,22.78
2023-06-10T04:52:08.026Z,23.06
2023-06-10T04:54:38.396Z,23.39
2023-06-10T04:57:13.368Z,23.73
2023-06-10T05:02:58.702Z,23.29
2023-06-10T05:05:27.196Z,23.63
2023-06-10T05:08:02.797Z,23.40
2023-06-10T05:10:35.715Z,23.38
2023-06-10T05:13:03.449Z,23.74
2023-06-10T05:15:32.890Z,24.15
2023-06-10T05:18:04.144Z,24.07
2023-06-10T05:20:31.907Z,24.61
2023-06-10T05:22:59.959Z,24.24
2023-06-10T05:25:30.001Z,24.39
2023-06-10T05:27:57.680Z,24.48
2023-06-10T05:30:25.678Z,24.36
2023-06-10T05:32:57.940Z,24.34
2023-06-10T05:35:35.278Z,24.28
2023-06-10T05:38:07.607Z,24.20
2023-06-10T05:40:49.340Z,24.34
2023-06-10T05:46:29.936Z,24.91
2023-06-10T05:49:26.065Z,25.07
2023-06-10T05:52:42.747Z,25.15
2023-06-10T05:55:12.408Z,25.47
2023-06-10T05:57:43.763Z,25.47
2023-06-10T06:00:14.021Z,25.66
2023-06-10T06:02:46.020Z,26.07
2023-06-10T06:05:19.137Z,25.96
2023-06-10T06:07:49.471Z,25.94
2023-06-10T06:10:19.008Z,26.17
2023-06-10T06:12:48.130Z,26.84
2023-06-10T06:15:44.034Z,26.87
2023-06-10T06:21:33.886Z,26.96
2023-06-10T06:24:03.099Z,27.21
2023-06-10T06:26:34.925Z,27.38
2023-06-10T06:29:04.020Z,27.56
2023-06-10T06:31:33.645Z,27.84
2023-06-10T06:34:05.236Z,27.52
2023-06-10T06:45:42.712Z,28.16
2023-06-10T06:48:13.678Z,28.69
2023-06-10T06:50:48.574Z,28.11
2023-06-10T06:53:22.595Z,28.30
2023-06-10T06:55:54.475Z,28.88
2023-06-10T06:58:22.418Z,28.82
2023-06-10T07:00:50.970Z,28.74
2023-06-10T07:03:19.388Z,29.05
2023-06-10T07:05:48.836Z,28.98
2023-06-10T07:08:18.398Z,29.56
2023-06-10T07:10:46.766Z,29.38
2023-06-10T07:13:20.658Z,29.23
2023-06-10T07:15:49.181Z,29.08
2023-06-10T07:21:33.866Z,29.67
2023-06-10T07:24:09.045Z,29.66
2023-06-10T07:26:37.225Z,29.77
2023-06-10T07:29:05.002Z,29.79
2023-06-10T07:31:33.063Z,29.77
2023-06-10T07:34:01.122Z,29.76
2023-06-10T07:36:33.285Z,29.67
2023-06-10T07:39:02.135Z,30.01
2023-06-10T07:41:31.962Z,30.86
2023-06-10T07:43:59.574Z,31.65
2023-06-10T07:46:27.597Z,31.69
2023-06-10T07:48:55.719Z,31.05
2023-06-10T07:51:24.308Z,31.91
2023-06-10T07:53:52.084Z,31.44
2023-06-10T07:56:21.359Z,32.00
2023-06-10T07:58:51.392Z,31.49
2023-06-10T08:01:19.068Z,30.98
2023-06-10T08:03:46.760Z,31.25
2023-06-10T08:06:14.257Z,31.54
2023-06-10T08:08:41.813Z,31.67
2023-06-10T08:11:09.435Z,31.62
2023-06-10T08:13:36.888Z,31.84
2023-06-10T08:16:06.284Z,32.03
2023-06-10T08:18:33.968Z,31.42
2023-06-10T08:21:01.451Z,31.47
2023-06-10T08:23:29.837Z,31.31
2023-06-10T08:25:57.494Z,31.46
2023-06-10T08:28:25.507Z,31.55
2023-06-10T08:30:58.910Z,31.11
2023-06-10T08:33:29.392Z,30.95
2023-06-10T08:35:56.883Z,31.25
2023-06-10T08:38:28.609Z,31.21
2023-06-10T08:41:10.190Z,31.26
2023-06-10T08:44:03.875Z,30.79
2023-06-10T08:46:35.498Z,30.94
2023-06-10T08:49:07.733Z,31.53
2023-06-10T08:51:57.548Z,31.40
2023-06-10T08:54:44.297Z,31.16
2023-06-10T08:57:15.194Z,31.54
2023-06-10T08:59:42.883Z,31.28
2023-06-10T09:02:17.076Z,31.31
2023-06-10T09:04:51.021Z,31.52
2023-06-10T09:07:18.565Z,31.58
2023-06-10T09:09:46.878Z,30.89
2023-06-10T09:12:16.356Z,30.99
2023-06-10T09:14:44.473Z,31.23
2023-06-10T09:17:13.393Z,31.15
2023-06-10T09:19:43.053Z,31.40
2023-06-10T09:22:12.124Z,31.58
2023-06-10T09:24:40.744Z,31.79
2023-06-10T09:27:09.986Z,31.49
2023-06-10T09:29:54.661Z,31.39
2023-06-10T09:32:23.059Z,31.45
2023-06-10T09:34:50.817Z,31.37
2023-06-10T09:37:23.728Z,31.46
2023-06-10T09:40:05.619Z,31.65
2023-06-10T09:42:37.360Z,31.35
2023-06-10T09:45:06.198Z,31.86
2023-06-10T09:47:33.734Z,31.47
2023-06-10T09:50:01.400Z,31.64
2023-06-10T09:52:31.060Z,31.88
2023-06-10T09:55:01.470Z,31.86
2023-06-10T09:57:32.784Z,31.92
2023-06-10T10:00:08.318Z,31.73
2023-06-10T10:02:45.604Z,31.84
2023-06-10T10:05:15.092Z,31.72
2023-06-10T10:07:45.842Z,32.14
2023-06-10T10:10:14.747Z,32.02
2023-06-10T10:12:43.720Z,32.40
2023-06-10T10:15:12.550Z,32.70
2023-06-10T10:17:46.273Z,32.38
2023-06-10T10:20:15.934Z,31.97
2023-06-10T10:22:52.357Z,31.92
2023-06-10T10:25:29.830Z,31.99
2023-06-10T10:28:07.563Z,32.52
2023-06-10T10:30:40.886Z,32.18
2023-06-10T10:33:17.655Z,32.72
2023-06-10T10:35:47.270Z,32.80
2023-06-10T10:38:16.896Z,32.26
2023-06-10T10:40:47.113Z,32.69
2023-06-10T10:43:16.491Z,32.41
2023-06-10T10:45:46.321Z,32.68
2023-06-10T10:48:15.722Z,33.06
2023-06-10T10:50:57.182Z,33.02
2023-06-10T10:53:26.688Z,32.58
2023-06-10T10:56:05.542Z,32.67
2023-06-10T10:58:36.446Z,32.11
2023-06-10T11:01:19.052Z,32.47
2023-06-10T11:03:48.257Z,32.53
2023-06-10T11:06:24.151Z,32.58
2023-06-10T11:09:05.362Z,33.09
2023-06-10T11:11:53.425Z,32.42
2023-06-10T11:14:30.047Z,32.65
2023-06-10T11:17:00.118Z,32.44
2023-06-10T11:19:41.439Z,32.53
2023-06-10T11:22:20.887Z,32.78
2023-06-10T11:29:07.498Z,33.09
2023-06-10T11:31:44.189Z,32.82
2023-06-10T11:34:12.578Z,33.21
2023-06-10T11:43:02.407Z,33.00
2023-06-10T11:45:44.745Z,33.53
2023-06-10T11:48:13.714Z,32.87
2023-06-10T11:50:41.724Z,33.05
2023-06-10T11:53:10.083Z,33.22
2023-06-10T11:55:45.422Z,33.17
2023-06-10T11:58:19.081Z,33.26
2023-06-10T12:00:49.930Z,33.28
2023-06-10T12:03:49.170Z,32.47
2023-06-10T12:06:17.148Z,32.80
2023-06-10T12:08:47.152Z,33.13
2023-06-10T12:11:14.878Z,33.16
2023-06-10T12:13:47.915Z,33.38
2023-06-10T12:16:27.525Z,33.79
2023-06-10T12:19:03.235Z,33.19
2023-06-10T12:21:32.574Z,33.08
2023-06-10T12:24:10.437Z,33.05
2023-06-10T12:26:40.406Z,33.40
2023-06-10T12:29:20.508Z,33.33
2023-06-10T12:32:08.118Z,33.39
2023-06-10T12:38:00.470Z,33.16
2023-06-10T12:43:29.519Z,32.94
2023-06-10T12:46:15.780Z,32.69
2023-06-10T12:49:37.165Z,33.25
2023-06-10T12:52:07.170Z,32.90
2023-06-10T12:54:35.668Z,32.63
2023-06-10T12:57:07.092Z,32.78
2023-06-10T12:59:38.529Z,32.68
